Terminal Aerodrome Forecast
Issued by NWS

Home | Current Version | Previous Version | Text Only | Print | Product List | Glossary On
Versions: 1 2 3 4 5 6 7 8 9 10 11 12 13 14 15 16 17 18 19 20 21 22 23 24 25 26 27 28 29 30 31 32 33 34 35 36 37 38 39 40 41 42 43 44 45 46 47 48 49 50
000
FTUS45 KBOU 281737
TAFAPA
TAF
KAPA 281737Z 2818/2918 VRB05KT P6SM FEW030 BKN200
     FM281900 10008KT P6SM SCT040 SCT110 BKN200
      TEMPO 2822/2902 VRB20G30KT -TSRA BKN050CB
     FM290200 15014KT P6SM SCT070 BKN120
     FM290800 20010KT P6SM SCT070 BKN120
     FM291500 03005KT P6SM SCT030 BKN150=

USA.gov is the U.S. government's official web portal to all federal, state and local government web resources and services.